sensor_id;sensor_type;location;lat;lon;timestamp;temperature;humidity
65406;DHT22;52016;51.228;-2.322;2022-08-11T00:03:14;25.40;39.70
65406;DHT22;52016;51.228;-2.322;2022-08-11T00:07:02;25.30;40.20
65406;DHT22;52016;51.228;-2.322;2022-08-11T00:10:54;25.10;41.30
65406;DHT22;52016;51.228;-2.322;2022-08-11T00:14:37;24.90;42.00
65406;DHT22;52016;51.228;-2.322;2022-08-11T00:18:19;24.80;41.00
65406;DHT22;52016;51.228;-2.322;2022-08-11T00:22:02;24.80;41.00
65406;DHT22;52016;51.228;-2.322;2022-08-11T00:25:49;24.90;41.00
65406;DHT22;52016;51.228;-2.322;2022-08-11T00:29:33;24.90;40.90
65406;DHT22;52016;51.228;-2.322;2022-08-11T00:33:20;25.00;40.70
65406;DHT22;52016;51.228;-2.322;2022-08-11T00:37:23;24.90;40.70
65406;DHT22;52016;51.228;-2.322;2022-08-11T00:41:33;24.90;40.60
65406;DHT22;52016;51.228;-2.322;2022-08-11T00:45:34;24.90;42.30
65406;DHT22;52016;51.228;-2.322;2022-08-11T00:53:24;24.90;40.70
65406;DHT22;52016;51.228;-2.322;2022-08-11T01:51:36;23.80;43.70
65406;DHT22;52016;51.228;-2.322;2022-08-11T01:55:39;23.80;44.20
65406;DHT22;52016;51.228;-2.322;2022-08-11T02:03:38;23.70;43.50
65406;DHT22;52016;51.228;-2.322;2022-08-11T02:07:20;23.70;43.50
65406;DHT22;52016;51.228;-2.322;2022-08-11T02:11:28;23.70;42.90
65406;DHT22;52016;51.228;-2.322;2022-08-11T02:15:33;23.50;44.60
65406;DHT22;52016;51.228;-2.322;2022-08-11T02:23:28;23.10;43.90
65406;DHT22;52016;51.228;-2.322;2022-08-11T02:27:51;22.90;44.30
65406;DHT22;52016;51.228;-2.322;2022-08-11T02:31:53;22.80;46.40
65406;DHT22;52016;51.228;-2.322;2022-08-11T02:36:18;22.60;46.40
65406;DHT22;52016;51.228;-2.322;2022-08-11T02:40:09;22.50;45.80
65406;DHT22;52016;51.228;-2.322;2022-08-11T02:48:31;22.50;46.20
65406;DHT22;52016;51.228;-2.322;2022-08-11T02:56:51;22.50;46.20
65406;DHT22;52016;51.228;-2.322;2022-08-11T03:00:48;22.50;46.10
65406;DHT22;52016;51.228;-2.322;2022-08-11T03:04:54;22.50;45.90
65406;DHT22;52016;51.228;-2.322;2022-08-11T03:08:52;22.50;45.90
65406;DHT22;52016;51.228;-2.322;2022-08-11T03:13:09;22.40;46.10
65406;DHT22;52016;51.228;-2.322;2022-08-11T03:17:49;22.30;46.40
65406;DHT22;52016;51.228;-2.322;2022-08-11T03:26:09;22.00;46.80
65406;DHT22;52016;51.228;-2.322;2022-08-11T03:33:53;21.90;47.10
65406;DHT22;52016;51.228;-2.322;2022-08-11T03:37:55;21.90;46.40
65406;DHT22;52016;51.228;-2.322;2022-08-11T03:46:09;21.70;47.80
65406;DHT22;52016;51.228;-2.322;2022-08-11T03:49:59;21.60;46.70
65406;DHT22;52016;51.228;-2.322;2022-08-11T04:23:37;21.10;48.90
65406;DHT22;52016;51.228;-2.322;2022-08-11T04:28:22;21.10;48.80
65406;DHT22;52016;51.228;-2.322;2022-08-11T04:32:35;21.10;48.80
65406;DHT22;52016;51.228;-2.322;2022-08-11T04:50:19;20.90;49.40
65406;DHT22;52016;51.228;-2.322;2022-08-11T04:54:57;20.80;49.90
65406;DHT22;52016;51.228;-2.322;2022-08-11T05:16:09;20.60;49.90
65406;DHT22;52016;51.228;-2.322;2022-08-11T05:20:11;20.60;48.90
65406;DHT22;52016;51.228;-2.322;2022-08-11T05:24:24;20.60;48.50
65406;DHT22;52016;51.228;-2.322;2022-08-11T05:32:39;20.70;49.80
65406;DHT22;52016;51.228;-2.322;2022-08-11T05:36:51;20.80;49.00
65406;DHT22;52016;51.228;-2.322;2022-08-11T05:40:52;20.90;49.60
65406;DHT22;52016;51.228;-2.322;2022-08-11T05:44:58;20.90;49.30
65406;DHT22;52016;51.228;-2.322;2022-08-11T05:49:01;20.80;49.00
65406;DHT22;52016;51.228;-2.322;2022-08-11T05:53:03;20.90;48.80
65406;DHT22;52016;51.228;-2.322;2022-08-11T05:57:09;20.80;49.00
65406;DHT22;52016;51.228;-2.322;2022-08-11T06:01:24;20.70;49.30
65406;DHT22;52016;51.228;-2.322;2022-08-11T06:05:07;20.70;49.90
65406;DHT22;52016;51.228;-2.322;2022-08-11T06:08:54;20.70;49.20
65406;DHT22;52016;51.228;-2.322;2022-08-11T06:12:38;20.70;49.80
65406;DHT22;52016;51.228;-2.322;2022-08-11T06:16:24;20.70;49.20
65406;DHT22;52016;51.228;-2.322;2022-08-11T06:20:09;20.80;49.30
65406;DHT22;52016;51.228;-2.322;2022-08-11T06:23:53;20.80;49.30
65406;DHT22;52016;51.228;-2.322;2022-08-11T06:27:37;20.80;49.30
65406;DHT22;52016;51.228;-2.322;2022-08-11T06:31:20;20.90;49.20
65406;DHT22;52016;51.228;-2.322;2022-08-11T06:35:28;20.90;49.10
65406;DHT22;52016;51.228;-2.322;2022-08-11T06:43:05;21.00;49.20
65406;DHT22;52016;51.228;-2.322;2022-08-11T06:46:49;21.00;49.40
65406;DHT22;52016;51.228;-2.322;2022-08-11T06:50:32;21.00;49.80
65406;DHT22;52016;51.228;-2.322;2022-08-11T06:54:37;20.90;49.90
65406;DHT22;52016;51.228;-2.322;2022-08-11T06:58:24;21.00;50.30
65406;DHT22;52016;51.228;-2.322;2022-08-11T07:02:42;21.10;49.90
65406;DHT22;52016;51.228;-2.322;2022-08-11T07:07:07;21.20;51.20
65406;DHT22;52016;51.228;-2.322;2022-08-11T07:15:50;21.20;50.20
65406;DHT22;52016;51.228;-2.322;2022-08-11T07:20:02;21.20;50.50
65406;DHT22;52016;51.228;-2.322;2022-08-11T07:24:12;21.30;51.60
65406;DHT22;52016;51.228;-2.322;2022-08-11T07:28:33;21.40;51.40
65406;DHT22;52016;51.228;-2.322;2022-08-11T07:32:44;21.50;51.10
65406;DHT22;52016;51.228;-2.322;2022-08-11T07:36:28;21.60;50.60
65406;DHT22;52016;51.228;-2.322;2022-08-11T07:40:11;21.60;50.40
65406;DHT22;52016;51.228;-2.322;2022-08-11T07:43:57;21.70;50.50
65406;DHT22;52016;51.228;-2.322;2022-08-11T07:47:51;21.80;51.20
65406;DHT22;52016;51.228;-2.322;2022-08-11T07:51:54;21.90;50.70
65406;DHT22;52016;51.228;-2.322;2022-08-11T07:55:57;22.00;50.60
65406;DHT22;52016;51.228;-2.322;2022-08-11T07:59:39;22.10;50.60
65406;DHT22;52016;51.228;-2.322;2022-08-11T08:03:45;22.30;50.60
65406;DHT22;52016;51.228;-2.322;2022-08-11T08:07:46;22.40;50.50
65406;DHT22;52016;51.228;-2.322;2022-08-11T08:11:47;22.40;50.60
65406;DHT22;52016;51.228;-2.322;2022-08-11T08:15:48;22.40;50.60
65406;DHT22;52016;51.228;-2.322;2022-08-11T08:19:51;22.50;50.60
65406;DHT22;52016;51.228;-2.322;2022-08-11T08:23:33;22.60;50.60
65406;DHT22;52016;51.228;-2.322;2022-08-11T08:27:15;22.70;50.60
65406;DHT22;52016;51.228;-2.322;2022-08-11T08:30:57;22.80;50.50
65406;DHT22;52016;51.228;-2.322;2022-08-11T08:34:40;22.90;50.30
65406;DHT22;52016;51.228;-2.322;2022-08-11T08:38:22;23.00;50.20
65406;DHT22;52016;51.228;-2.322;2022-08-11T08:42:12;23.20;50.00
65406;DHT22;52016;51.228;-2.322;2022-08-11T08:45:56;23.30;50.40
65406;DHT22;52016;51.228;-2.322;2022-08-11T08:49:43;23.40;49.80
65406;DHT22;52016;51.228;-2.322;2022-08-11T08:53:34;23.50;49.70
65406;DHT22;52016;51.228;-2.322;2022-08-11T08:57:17;23.60;49.80
65406;DHT22;52016;51.228;-2.322;2022-08-11T09:01:00;23.80;49.50
65406;DHT22;52016;51.228;-2.322;2022-08-11T09:04:45;23.90;49.40
65406;DHT22;52016;51.228;-2.322;2022-08-11T09:08:30;24.00;49.40
65406;DHT22;52016;51.228;-2.322;2022-08-11T09:12:13;24.00;49.30
65406;DHT22;52016;51.228;-2.322;2022-08-11T09:15:55;24.20;49.10
65406;DHT22;52016;51.228;-2.322;2022-08-11T09:19:37;24.30;49.00
65406;DHT22;52016;51.228;-2.322;2022-08-11T09:23:19;24.40;48.80
65406;DHT22;52016;51.228;-2.322;2022-08-11T09:27:40;24.60;48.70
65406;DHT22;52016;51.228;-2.322;2022-08-11T09:31:31;24.70;48.50
65406;DHT22;52016;51.228;-2.322;2022-08-11T09:35:21;24.80;48.50
65406;DHT22;52016;51.228;-2.322;2022-08-11T09:39:04;24.90;48.40
65406;DHT22;52016;51.228;-2.322;2022-08-11T09:43:06;25.00;48.20
65406;DHT22;52016;51.228;-2.322;2022-08-11T09:47:09;25.10;48.10
65406;DHT22;52016;51.228;-2.322;2022-08-11T09:50:58;25.20;47.90
65406;DHT22;52016;51.228;-2.322;2022-08-11T09:54:43;25.30;47.90
65406;DHT22;52016;51.228;-2.322;2022-08-11T09:58:29;25.40;47.70
65406;DHT22;52016;51.228;-2.322;2022-08-11T10:02:28;25.50;47.60
65406;DHT22;52016;51.228;-2.322;2022-08-11T10:06:11;25.70;47.40
65406;DHT22;52016;51.228;-2.322;2022-08-11T10:10:16;25.70;47.40
65406;DHT22;52016;51.228;-2.322;2022-08-11T10:14:05;25.90;47.10
65406;DHT22;52016;51.228;-2.322;2022-08-11T10:18:17;26.00;46.90
65406;DHT22;52016;51.228;-2.322;2022-08-11T10:22:19;26.20;46.70
65406;DHT22;52016;51.228;-2.322;2022-08-11T10:26:20;26.40;46.60
65406;DHT22;52016;51.228;-2.322;2022-08-11T10:30:20;26.60;46.30
65406;DHT22;52016;51.228;-2.322;2022-08-11T10:34:29;26.70;46.00
65406;DHT22;52016;51.228;-2.322;2022-08-11T10:38:13;26.90;45.80
65406;DHT22;52016;51.228;-2.322;2022-08-11T10:41:56;27.10;45.60
65406;DHT22;52016;51.228;-2.322;2022-08-11T10:46:19;27.30;45.30
65406;DHT22;52016;51.228;-2.322;2022-08-11T10:50:20;27.40;45.10
65406;DHT22;52016;51.228;-2.322;2022-08-11T10:54:21;27.60;44.90
65406;DHT22;52016;51.228;-2.322;2022-08-11T10:58:23;27.80;44.60
65406;DHT22;52016;51.228;-2.322;2022-08-11T11:02:23;28.00;44.40
65406;DHT22;52016;51.228;-2.322;2022-08-11T11:10:12;28.30;42.90
65406;DHT22;52016;51.228;-2.322;2022-08-11T11:13:54;28.40;43.50
65406;DHT22;52016;51.228;-2.322;2022-08-11T11:18:03;28.40;43.30
65406;DHT22;52016;51.228;-2.322;2022-08-11T11:21:51;28.50;42.40
65406;DHT22;52016;51.228;-2.322;2022-08-11T11:37:54;28.90;41.00
65406;DHT22;52016;51.228;-2.322;2022-08-11T11:41:46;29.00;41.80
65406;DHT22;52016;51.228;-2.322;2022-08-11T11:45:29;29.20;41.60
65406;DHT22;52016;51.228;-2.322;2022-08-11T11:49:12;29.50;41.70
65406;DHT22;52016;51.228;-2.322;2022-08-11T11:53:00;29.90;40.80
65406;DHT22;52016;51.228;-2.322;2022-08-11T11:56:43;30.30;40.60
65406;DHT22;52016;51.228;-2.322;2022-08-11T12:00:28;30.60;40.20
65406;DHT22;52016;51.228;-2.322;2022-08-11T12:04:28;30.90;39.80
65406;DHT22;52016;51.228;-2.322;2022-08-11T12:08:12;31.30;39.80
65406;DHT22;52016;51.228;-2.322;2022-08-11T12:11:58;31.50;39.30
65406;DHT22;52016;51.228;-2.322;2022-08-11T12:15:59;31.90;38.30
65406;DHT22;52016;51.228;-2.322;2022-08-11T12:20:04;32.20;39.00
65406;DHT22;52016;51.228;-2.322;2022-08-11T12:24:09;32.50;38.60
65406;DHT22;52016;51.228;-2.322;2022-08-11T12:28:10;32.90;37.50
65406;DHT22;52016;51.228;-2.322;2022-08-11T12:31:54;33.10;37.40
65406;DHT22;52016;51.228;-2.322;2022-08-11T12:35:36;33.30;36.90
65406;DHT22;52016;51.228;-2.322;2022-08-11T12:39:21;33.50;36.60
65406;DHT22;52016;51.228;-2.322;2022-08-11T12:43:45;33.70;36.30
65406;DHT22;52016;51.228;-2.322;2022-08-11T12:47:49;34.10;35.80
65406;DHT22;52016;51.228;-2.322;2022-08-11T12:52:18;34.50;35.50
65406;DHT22;52016;51.228;-2.322;2022-08-11T12:56:03;34.90;34.00
65406;DHT22;52016;51.228;-2.322;2022-08-11T13:00:06;35.30;34.60
65406;DHT22;52016;51.228;-2.322;2022-08-11T13:04:07;35.70;34.60
65406;DHT22;52016;51.228;-2.322;2022-08-11T13:08:08;35.90;33.90
65406;DHT22;52016;51.228;-2.322;2022-08-11T13:11:50;35.90;33.40
65406;DHT22;52016;51.228;-2.322;2022-08-11T13:15:51;36.00;33.10
65406;DHT22;52016;51.228;-2.322;2022-08-11T13:19:34;36.30;32.80
65406;DHT22;52016;51.228;-2.322;2022-08-11T13:23:16;36.50;32.80
65406;DHT22;52016;51.228;-2.322;2022-08-11T13:26:58;37.00;32.50
65406;DHT22;52016;51.228;-2.322;2022-08-11T13:30:42;37.40;32.10
65406;DHT22;52016;51.228;-2.322;2022-08-11T13:34:43;37.70;31.80
65406;DHT22;52016;51.228;-2.322;2022-08-11T13:38:26;38.00;31.40
65406;DHT22;52016;51.228;-2.322;2022-08-11T13:42:09;38.20;31.10
65406;DHT22;52016;51.228;-2.322;2022-08-11T13:45:51;38.40;30.50
65406;DHT22;52016;51.228;-2.322;2022-08-11T13:49:54;38.40;30.10
65406;DHT22;52016;51.228;-2.322;2022-08-11T13:53:37;38.70;30.30
65406;DHT22;52016;51.228;-2.322;2022-08-11T13:57:20;39.00;30.00
65406;DHT22;52016;51.228;-2.322;2022-08-11T14:01:27;39.30;29.50
65406;DHT22;52016;51.228;-2.322;2022-08-11T14:05:41;39.50;28.20
65406;DHT22;52016;51.228;-2.322;2022-08-11T14:09:31;39.60;26.70
65406;DHT22;52016;51.228;-2.322;2022-08-11T14:13:16;39.90;28.30
65406;DHT22;52016;51.228;-2.322;2022-08-11T14:17:30;39.90;27.90
65406;DHT22;52016;51.228;-2.322;2022-08-11T14:21:29;40.00;28.20
65406;DHT22;52016;51.228;-2.322;2022-08-11T14:25:35;40.40;27.80
65406;DHT22;52016;51.228;-2.322;2022-08-11T14:29:40;40.40;27.30
65406;DHT22;52016;51.228;-2.322;2022-08-11T14:33:31;40.40;27.00
65406;DHT22;52016;51.228;-2.322;2022-08-11T14:37:34;40.50;27.00
65406;DHT22;52016;51.228;-2.322;2022-08-11T14:41:17;40.60;26.80
65406;DHT22;52016;51.228;-2.322;2022-08-11T14:45:38;40.90;26.80
65406;DHT22;52016;51.228;-2.322;2022-08-11T14:49:41;41.30;26.70
65406;DHT22;52016;51.228;-2.322;2022-08-11T14:53:43;41.60;26.60
65406;DHT22;52016;51.228;-2.322;2022-08-11T14:57:40;41.70;26.40
65406;DHT22;52016;51.228;-2.322;2022-08-11T15:01:37;41.90;26.20
65406;DHT22;52016;51.228;-2.322;2022-08-11T15:05:50;42.20;26.10
65406;DHT22;52016;51.228;-2.322;2022-08-11T15:09:42;42.50;26.00
65406;DHT22;52016;51.228;-2.322;2022-08-11T15:13:45;42.60;24.60
65406;DHT22;52016;51.228;-2.322;2022-08-11T15:17:27;42.70;25.30
65406;DHT22;52016;51.228;-2.322;2022-08-11T15:21:24;42.50;25.20
65406;DHT22;52016;51.228;-2.322;2022-08-11T15:25:25;42.50;25.10
65406;DHT22;52016;51.228;-2.322;2022-08-11T15:29:08;42.70;25.20
65406;DHT22;52016;51.228;-2.322;2022-08-11T15:33:11;43.10;24.80
65406;DHT22;52016;51.228;-2.322;2022-08-11T15:37:16;43.50;24.40
65406;DHT22;52016;51.228;-2.322;2022-08-11T15:41:12;43.50;24.00
65406;DHT22;52016;51.228;-2.322;2022-08-11T15:45:19;43.50;23.20
65406;DHT22;52016;51.228;-2.322;2022-08-11T15:49:29;43.80;24.00
65406;DHT22;52016;51.228;-2.322;2022-08-11T15:53:41;44.20;23.10
65406;DHT22;52016;51.228;-2.322;2022-08-11T15:57:24;44.50;22.50
65406;DHT22;52016;51.228;-2.322;2022-08-11T16:01:27;44.50;23.90
65406;DHT22;52016;51.228;-2.322;2022-08-11T16:05:27;44.80;23.80
65406;DHT22;52016;51.228;-2.322;2022-08-11T16:09:37;45.00;23.60
65406;DHT22;52016;51.228;-2.322;2022-08-11T16:13:38;45.10;22.50
65406;DHT22;52016;51.228;-2.322;2022-08-11T16:17:23;45.00;23.40
65406;DHT22;52016;51.228;-2.322;2022-08-11T16:21:13;45.00;23.00
65406;DHT22;52016;51.228;-2.322;2022-08-11T16:25:21;44.90;22.20
65406;DHT22;52016;51.228;-2.322;2022-08-11T16:29:24;45.10;21.90
65406;DHT22;52016;51.228;-2.322;2022-08-11T16:33:07;44.90;23.00
65406;DHT22;52016;51.228;-2.322;2022-08-11T16:37:10;45.00;22.90
65406;DHT22;52016;51.228;-2.322;2022-08-11T16:41:12;45.20;22.80
65406;DHT22;52016;51.228;-2.322;2022-08-11T16:44:55;45.40;22.80
65406;DHT22;52016;51.228;-2.322;2022-08-11T16:49:00;45.50;22.50
65406;DHT22;52016;51.228;-2.322;2022-08-11T16:52:43;45.00;22.40
65406;DHT22;52016;51.228;-2.322;2022-08-11T16:56:39;44.50;22.70
65406;DHT22;52016;51.228;-2.322;2022-08-11T17:00:22;44.50;22.10
65406;DHT22;52016;51.228;-2.322;2022-08-11T17:04:16;44.80;22.70
65406;DHT22;52016;51.228;-2.322;2022-08-11T17:08:31;44.70;21.80
65406;DHT22;52016;51.228;-2.322;2022-08-11T17:12:39;44.90;21.60
65406;DHT22;52016;51.228;-2.322;2022-08-11T17:16:41;45.20;22.30
65406;DHT22;52016;51.228;-2.322;2022-08-11T17:20:27;45.40;22.20
65406;DHT22;52016;51.228;-2.322;2022-08-11T17:24:26;45.30;22.20
65406;DHT22;52016;51.228;-2.322;2022-08-11T17:28:09;45.60;22.20
65406;DHT22;52016;51.228;-2.322;2022-08-11T17:31:53;45.60;22.20
65406;DHT22;52016;51.228;-2.322;2022-08-11T17:35:54;45.40;22.00
65406;DHT22;52016;51.228;-2.322;2022-08-11T17:39:37;45.10;22.20
65406;DHT22;52016;51.228;-2.322;2022-08-11T17:43:20;45.20;22.30
65406;DHT22;52016;51.228;-2.322;2022-08-11T17:47:20;45.50;22.30
65406;DHT22;52016;51.228;-2.322;2022-08-11T17:51:22;45.80;22.20
65406;DHT22;52016;51.228;-2.322;2022-08-11T17:55:23;45.90;22.20
65406;DHT22;52016;51.228;-2.322;2022-08-11T17:59:34;45.90;22.20
65406;DHT22;52016;51.228;-2.322;2022-08-11T18:03:35;45.80;22.20
65406;DHT22;52016;51.228;-2.322;2022-08-11T18:07:21;45.80;22.10
65406;DHT22;52016;51.228;-2.322;2022-08-11T18:11:24;45.70;22.10
65406;DHT22;52016;51.228;-2.322;2022-08-11T18:15:45;45.20;22.20
65406;DHT22;52016;51.228;-2.322;2022-08-11T18:19:45;44.70;22.40
65406;DHT22;52016;51.228;-2.322;2022-08-11T18:23:47;44.50;22.40
65406;DHT22;52016;51.228;-2.322;2022-08-11T18:27:49;44.30;22.30
65406;DHT22;52016;51.228;-2.322;2022-08-11T18:31:53;43.90;22.50
65406;DHT22;52016;51.228;-2.322;2022-08-11T18:36:04;43.50;22.50
65406;DHT22;52016;51.228;-2.322;2022-08-11T18:40:11;43.00;22.60
65406;DHT22;52016;51.228;-2.322;2022-08-11T18:44:16;42.40;22.70
65406;DHT22;52016;51.228;-2.322;2022-08-11T18:48:21;42.00;23.00
65406;DHT22;52016;51.228;-2.322;2022-08-11T18:52:23;41.90;23.10
65406;DHT22;52016;51.228;-2.322;2022-08-11T18:56:26;41.80;23.10
65406;DHT22;52016;51.228;-2.322;2022-08-11T19:00:30;41.60;23.20
65406;DHT22;52016;51.228;-2.322;2022-08-11T19:04:32;40.70;23.60
65406;DHT22;52016;51.228;-2.322;2022-08-11T19:08:38;39.40;24.30
65406;DHT22;52016;51.228;-2.322;2022-08-11T19:12:42;38.30;25.00
65406;DHT22;52016;51.228;-2.322;2022-08-11T19:16:44;37.50;25.30
65406;DHT22;52016;51.228;-2.322;2022-08-11T19:20:47;36.90;25.60
65406;DHT22;52016;51.228;-2.322;2022-08-11T19:24:50;36.30;26.00
65406;DHT22;52016;51.228;-2.322;2022-08-11T19:28:52;35.80;26.60
65406;DHT22;52016;51.228;-2.322;2022-08-11T19:33:13;35.30;26.70
65406;DHT22;52016;51.228;-2.322;2022-08-11T19:37:34;34.90;26.90
65406;DHT22;52016;51.228;-2.322;2022-08-11T19:41:37;34.60;27.10
65406;DHT22;52016;51.228;-2.322;2022-08-11T19:45:38;34.30;27.50
65406;DHT22;52016;51.228;-2.322;2022-08-11T19:49:41;34.00;27.70
65406;DHT22;52016;51.228;-2.322;2022-08-11T19:53:44;33.70;28.00
65406;DHT22;52016;51.228;-2.322;2022-08-11T19:57:45;33.50;28.20
65406;DHT22;52016;51.228;-2.322;2022-08-11T20:01:47;33.40;28.20
65406;DHT22;52016;51.228;-2.322;2022-08-11T20:05:58;33.30;28.30
65406;DHT22;52016;51.228;-2.322;2022-08-11T20:10:02;33.10;28.60
65406;DHT22;52016;51.228;-2.322;2022-08-11T20:14:05;33.00;29.00
65406;DHT22;52016;51.228;-2.322;2022-08-11T20:18:09;32.80;29.10
65406;DHT22;52016;51.228;-2.322;2022-08-11T20:22:13;32.60;29.20
65406;DHT22;52016;51.228;-2.322;2022-08-11T20:26:15;32.40;29.60
65406;DHT22;52016;51.228;-2.322;2022-08-11T20:30:16;32.40;29.40
65406;DHT22;52016;51.228;-2.322;2022-08-11T20:34:17;32.20;29.60
65406;DHT22;52016;51.228;-2.322;2022-08-11T20:38:19;32.20;29.80
65406;DHT22;52016;51.228;-2.322;2022-08-11T20:42:21;31.90;30.20
65406;DHT22;52016;51.228;-2.322;2022-08-11T20:46:24;31.60;30.50
65406;DHT22;52016;51.228;-2.322;2022-08-11T20:50:26;31.40;30.80
65406;DHT22;52016;51.228;-2.322;2022-08-11T20:54:28;31.20;30.90
65406;DHT22;52016;51.228;-2.322;2022-08-11T20:58:30;31.00;31.00
65406;DHT22;52016;51.228;-2.322;2022-08-11T21:02:52;30.90;31.30
65406;DHT22;52016;51.228;-2.322;2022-08-11T21:07:15;30.70;31.50
65406;DHT22;52016;51.228;-2.322;2022-08-11T21:11:21;30.50;31.80
65406;DHT22;52016;51.228;-2.322;2022-08-11T21:15:29;30.40;32.00
65406;DHT22;52016;51.228;-2.322;2022-08-11T21:19:45;30.10;32.30
65406;DHT22;52016;51.228;-2.322;2022-08-11T21:23:52;30.00;32.30
65406;DHT22;52016;51.228;-2.322;2022-08-11T21:28:00;29.90;32.60
65406;DHT22;52016;51.228;-2.322;2022-08-11T21:32:02;29.70;33.70
65406;DHT22;52016;51.228;-2.322;2022-08-11T21:36:05;29.50;33.20
65406;DHT22;52016;51.228;-2.322;2022-08-11T21:40:07;29.40;33.70
65406;DHT22;52016;51.228;-2.322;2022-08-11T21:44:08;29.10;34.00
65406;DHT22;52016;51.228;-2.322;2022-08-11T21:48:10;28.90;34.10
65406;DHT22;52016;51.228;-2.322;2022-08-11T21:52:11;28.60;34.60
65406;DHT22;52016;51.228;-2.322;2022-08-11T21:56:13;28.40;34.80
65406;DHT22;52016;51.228;-2.322;2022-08-11T22:00:15;28.40;35.00
65406;DHT22;52016;51.228;-2.322;2022-08-11T22:04:16;28.30;35.10
65406;DHT22;52016;51.228;-2.322;2022-08-11T22:08:18;28.20;35.30
65406;DHT22;52016;51.228;-2.322;2022-08-11T22:12:18;28.20;35.30
65406;DHT22;52016;51.228;-2.322;2022-08-11T22:16:25;28.00;35.50
65406;DHT22;52016;51.228;-2.322;2022-08-11T22:20:26;28.00;35.70
65406;DHT22;52016;51.228;-2.322;2022-08-11T22:24:28;28.00;35.90
65406;DHT22;52016;51.228;-2.322;2022-08-11T22:28:29;28.00;36.00
65406;DHT22;52016;51.228;-2.322;2022-08-11T22:32:30;27.90;36.20
65406;DHT22;52016;51.228;-2.322;2022-08-11T22:36:32;27.80;36.30
65406;DHT22;52016;51.228;-2.322;2022-08-11T22:40:35;27.80;36.60
65406;DHT22;52016;51.228;-2.322;2022-08-11T22:44:35;27.70;36.60
65406;DHT22;52016;51.228;-2.322;2022-08-11T22:48:36;27.70;36.60
65406;DHT22;52016;51.228;-2.322;2022-08-11T22:52:39;27.60;37.10
65406;DHT22;52016;51.228;-2.322;2022-08-11T22:56:40;27.50;37.10
65406;DHT22;52016;51.228;-2.322;2022-08-11T23:00:40;27.40;37.10
65406;DHT22;52016;51.228;-2.322;2022-08-11T23:04:41;27.40;37.20
65406;DHT22;52016;51.228;-2.322;2022-08-11T23:08:42;27.40;37.30
65406;DHT22;52016;51.228;-2.322;2022-08-11T23:12:44;27.40;37.40
65406;DHT22;52016;51.228;-2.322;2022-08-11T23:16:45;27.40;37.40
65406;DHT22;52016;51.228;-2.322;2022-08-11T23:20:46;27.40;37.50
65406;DHT22;52016;51.228;-2.322;2022-08-11T23:24:47;27.40;37.50
65406;DHT22;52016;51.228;-2.322;2022-08-11T23:28:48;27.40;37.70
65406;DHT22;52016;51.228;-2.322;2022-08-11T23:32:54;27.30;37.80
65406;DHT22;52016;51.228;-2.322;2022-08-11T23:36:55;27.20;38.50
65406;DHT22;52016;51.228;-2.322;2022-08-11T23:40:56;27.00;38.30
65406;DHT22;52016;51.228;-2.322;2022-08-11T23:44:56;26.80;38.70
65406;DHT22;52016;51.228;-2.322;2022-08-11T23:49:03;26.60;39.20
65406;DHT22;52016;51.228;-2.322;2022-08-11T23:53:04;26.40;39.40
65406;DHT22;52016;51.228;-2.322;2022-08-11T23:57:05;26.40;39.50
